sensor_id;sensor_type;location;lat;lon;timestamp;P1;durP1;ratioP1;P2;durP2;ratioP2
52057;SDS011;38063;53.210;6.504;2022-09-09T00:00:12;13.52;;;8.95;;
52057;SDS011;38063;53.210;6.504;2022-09-09T00:02:40;15.80;;;8.75;;
52057;SDS011;38063;53.210;6.504;2022-09-09T00:05:19;11.15;;;8.50;;
52057;SDS011;38063;53.210;6.504;2022-09-09T00:08:03;11.00;;;8.60;;
52057;SDS011;38063;53.210;6.504;2022-09-09T00:13:00;15.55;;;8.73;;
52057;SDS011;38063;53.210;6.504;2022-09-09T00:15:52;12.93;;;8.82;;
52057;SDS011;38063;53.210;6.504;2022-09-09T00:18:30;12.95;;;8.63;;
52057;SDS011;38063;53.210;6.504;2022-09-09T00:21:17;15.00;;;8.95;;
52057;SDS011;38063;53.210;6.504;2022-09-09T00:23:49;12.90;;;9.20;;
52057;SDS011;38063;53.210;6.504;2022-09-09T00:26:40;14.50;;;8.65;;
52057;SDS011;38063;53.210;6.504;2022-09-09T00:31:33;14.40;;;9.18;;
52057;SDS011;38063;53.210;6.504;2022-09-09T00:34:05;15.05;;;9.75;;
52057;SDS011;38063;53.210;6.504;2022-09-09T00:36:38;13.52;;;9.60;;
52057;SDS011;38063;53.210;6.504;2022-09-09T00:39:04;15.57;;;9.65;;
52057;SDS011;38063;53.210;6.504;2022-09-09T00:41:41;14.75;;;9.60;;
52057;SDS011;38063;53.210;6.504;2022-09-09T00:44:34;16.63;;;9.95;;
52057;SDS011;38063;53.210;6.504;2022-09-09T00:52:49;12.30;;;9.82;;
52057;SDS011;38063;53.210;6.504;2022-09-09T00:55:39;13.15;;;9.68;;
52057;SDS011;38063;53.210;6.504;2022-09-09T00:58:29;15.98;;;10.52;;
52057;SDS011;38063;53.210;6.504;2022-09-09T01:01:11;13.52;;;9.70;;
52057;SDS011;38063;53.210;6.504;2022-09-09T01:03:54;14.68;;;9.77;;
52057;SDS011;38063;53.210;6.504;2022-09-09T01:11:55;11.05;;;8.55;;
52057;SDS011;38063;53.210;6.504;2022-09-09T01:14:31;11.50;;;9.52;;
52057;SDS011;38063;53.210;6.504;2022-09-09T01:27:56;14.90;;;8.85;;
52057;SDS011;38063;53.210;6.504;2022-09-09T01:30:25;15.57;;;9.80;;
52057;SDS011;38063;53.210;6.504;2022-09-09T01:32:56;12.80;;;8.70;;
52057;SDS011;38063;53.210;6.504;2022-09-09T01:37:57;13.27;;;9.30;;
52057;SDS011;38063;53.210;6.504;2022-09-09T01:40:23;15.00;;;9.38;;
52057;SDS011;38063;53.210;6.504;2022-09-09T01:42:51;14.13;;;8.88;;
52057;SDS011;38063;53.210;6.504;2022-09-09T01:45:18;18.23;;;10.18;;
52057;SDS011;38063;53.210;6.504;2022-09-09T01:47:44;11.07;;;8.88;;
52057;SDS011;38063;53.210;6.504;2022-09-09T01:50:11;11.88;;;8.68;;
52057;SDS011;38063;53.210;6.504;2022-09-09T01:52:39;14.48;;;8.98;;
52057;SDS011;38063;53.210;6.504;2022-09-09T01:55:05;12.70;;;8.80;;
52057;SDS011;38063;53.210;6.504;2022-09-09T02:00:23;13.57;;;9.70;;
52057;SDS011;38063;53.210;6.504;2022-09-09T02:03:08;14.88;;;9.25;;
52057;SDS011;38063;53.210;6.504;2022-09-09T02:05:57;13.30;;;9.25;;
52057;SDS011;38063;53.210;6.504;2022-09-09T02:08:45;13.38;;;8.57;;
52057;SDS011;38063;53.210;6.504;2022-09-09T02:11:21;15.38;;;10.15;;
52057;SDS011;38063;53.210;6.504;2022-09-09T02:13:50;14.80;;;9.95;;
52057;SDS011;38063;53.210;6.504;2022-09-09T02:16:20;14.73;;;9.95;;
52057;SDS011;38063;53.210;6.504;2022-09-09T02:19:06;14.15;;;9.65;;
52057;SDS011;38063;53.210;6.504;2022-09-09T02:21:38;16.80;;;10.35;;
52057;SDS011;38063;53.210;6.504;2022-09-09T02:24:06;13.35;;;9.88;;
52057;SDS011;38063;53.210;6.504;2022-09-09T02:26:35;13.25;;;9.80;;
52057;SDS011;38063;53.210;6.504;2022-09-09T02:29:06;15.13;;;9.90;;
52057;SDS011;38063;53.210;6.504;2022-09-09T02:31:37;14.63;;;10.20;;
52057;SDS011;38063;53.210;6.504;2022-09-09T02:34:04;14.82;;;10.68;;
52057;SDS011;38063;53.210;6.504;2022-09-09T02:36:33;14.43;;;10.85;;
52057;SDS011;38063;53.210;6.504;2022-09-09T02:39:01;16.88;;;10.57;;
52057;SDS011;38063;53.210;6.504;2022-09-09T02:41:33;19.40;;;11.02;;
52057;SDS011;38063;53.210;6.504;2022-09-09T02:44:02;17.17;;;10.75;;
52057;SDS011;38063;53.210;6.504;2022-09-09T02:52:20;16.45;;;11.48;;
52057;SDS011;38063;53.210;6.504;2022-09-09T02:54:57;16.70;;;10.57;;
52057;SDS011;38063;53.210;6.504;2022-09-09T02:57:31;21.20;;;12.27;;
52057;SDS011;38063;53.210;6.504;2022-09-09T02:59:58;16.33;;;11.55;;
52057;SDS011;38063;53.210;6.504;2022-09-09T03:02:24;15.57;;;10.90;;
52057;SDS011;38063;53.210;6.504;2022-09-09T03:04:50;21.02;;;12.38;;
52057;SDS011;38063;53.210;6.504;2022-09-09T03:07:19;26.58;;;11.52;;
52057;SDS011;38063;53.210;6.504;2022-09-09T03:09:45;16.70;;;10.95;;
52057;SDS011;38063;53.210;6.504;2022-09-09T03:12:11;15.85;;;11.90;;
52057;SDS011;38063;53.210;6.504;2022-09-09T03:14:37;17.35;;;10.68;;
52057;SDS011;38063;53.210;6.504;2022-09-09T03:17:03;15.82;;;10.95;;
52057;SDS011;38063;53.210;6.504;2022-09-09T03:19:30;17.95;;;11.27;;
52057;SDS011;38063;53.210;6.504;2022-09-09T03:21:56;17.95;;;10.90;;
52057;SDS011;38063;53.210;6.504;2022-09-09T03:24:23;15.88;;;10.32;;
52057;SDS011;38063;53.210;6.504;2022-09-09T03:26:49;16.40;;;11.52;;
52057;SDS011;38063;53.210;6.504;2022-09-09T03:29:15;17.95;;;11.38;;
52057;SDS011;38063;53.210;6.504;2022-09-09T03:31:43;20.25;;;11.65;;
52057;SDS011;38063;53.210;6.504;2022-09-09T03:34:09;20.02;;;11.52;;
52057;SDS011;38063;53.210;6.504;2022-09-09T03:36:35;17.80;;;10.30;;
52057;SDS011;38063;53.210;6.504;2022-09-09T03:39:02;13.35;;;9.80;;
52057;SDS011;38063;53.210;6.504;2022-09-09T03:41:28;14.32;;;9.48;;
52057;SDS011;38063;53.210;6.504;2022-09-09T03:43:54;13.45;;;9.52;;
52057;SDS011;38063;53.210;6.504;2022-09-09T03:46:21;16.17;;;9.18;;
52057;SDS011;38063;53.210;6.504;2022-09-09T03:48:48;13.88;;;9.68;;
52057;SDS011;38063;53.210;6.504;2022-09-09T03:51:14;13.70;;;8.30;;
52057;SDS011;38063;53.210;6.504;2022-09-09T03:53:41;14.43;;;8.57;;
52057;SDS011;38063;53.210;6.504;2022-09-09T03:56:07;13.55;;;8.05;;
52057;SDS011;38063;53.210;6.504;2022-09-09T03:58:33;12.15;;;8.02;;
52057;SDS011;38063;53.210;6.504;2022-09-09T04:01:00;12.02;;;7.65;;
52057;SDS011;38063;53.210;6.504;2022-09-09T04:03:31;11.25;;;6.68;;
52057;SDS011;38063;53.210;6.504;2022-09-09T04:05:58;11.20;;;7.20;;
52057;SDS011;38063;53.210;6.504;2022-09-09T04:08:25;9.82;;;6.80;;
52057;SDS011;38063;53.210;6.504;2022-09-09T04:10:51;9.18;;;6.38;;
52057;SDS011;38063;53.210;6.504;2022-09-09T04:13:18;10.50;;;6.85;;
52057;SDS011;38063;53.210;6.504;2022-09-09T04:15:50;11.73;;;6.15;;
52057;SDS011;38063;53.210;6.504;2022-09-09T04:18:17;10.65;;;6.07;;
52057;SDS011;38063;53.210;6.504;2022-09-09T04:20:42;9.32;;;5.93;;
52057;SDS011;38063;53.210;6.504;2022-09-09T04:23:10;14.50;;;5.90;;
52057;SDS011;38063;53.210;6.504;2022-09-09T04:25:36;8.63;;;5.97;;
52057;SDS011;38063;53.210;6.504;2022-09-09T04:28:03;8.52;;;5.63;;
52057;SDS011;38063;53.210;6.504;2022-09-09T04:30:28;13.75;;;6.05;;
52057;SDS011;38063;53.210;6.504;2022-09-09T04:32:54;11.35;;;5.55;;
52057;SDS011;38063;53.210;6.504;2022-09-09T04:35:19;10.70;;;5.80;;
52057;SDS011;38063;53.210;6.504;2022-09-09T04:37:45;9.27;;;5.32;;
52057;SDS011;38063;53.210;6.504;2022-09-09T04:40:12;11.55;;;5.35;;
52057;SDS011;38063;53.210;6.504;2022-09-09T04:42:37;9.63;;;5.97;;
52057;SDS011;38063;53.210;6.504;2022-09-09T04:45:04;8.35;;;5.80;;
52057;SDS011;38063;53.210;6.504;2022-09-09T04:47:31;10.50;;;6.18;;
52057;SDS011;38063;53.210;6.504;2022-09-09T04:49:59;13.13;;;6.25;;
52057;SDS011;38063;53.210;6.504;2022-09-09T04:52:25;12.57;;;5.75;;
52057;SDS011;38063;53.210;6.504;2022-09-09T04:54:51;15.10;;;6.10;;
52057;SDS011;38063;53.210;6.504;2022-09-09T04:57:19;10.40;;;5.80;;
52057;SDS011;38063;53.210;6.504;2022-09-09T04:59:45;10.50;;;6.70;;
52057;SDS011;38063;53.210;6.504;2022-09-09T05:02:11;8.80;;;6.13;;
52057;SDS011;38063;53.210;6.504;2022-09-09T05:04:36;8.13;;;5.93;;
52057;SDS011;38063;53.210;6.504;2022-09-09T05:07:02;10.60;;;5.82;;
52057;SDS011;38063;53.210;6.504;2022-09-09T05:09:28;12.30;;;6.93;;
52057;SDS011;38063;53.210;6.504;2022-09-09T05:11:54;11.32;;;6.63;;
52057;SDS011;38063;53.210;6.504;2022-09-09T05:14:19;12.77;;;6.35;;
52057;SDS011;38063;53.210;6.504;2022-09-09T05:16:45;11.27;;;6.70;;
52057;SDS011;38063;53.210;6.504;2022-09-09T05:19:12;11.93;;;6.35;;
52057;SDS011;38063;53.210;6.504;2022-09-09T05:21:37;14.68;;;6.78;;
52057;SDS011;38063;53.210;6.504;2022-09-09T05:24:03;12.38;;;7.20;;
52057;SDS011;38063;53.210;6.504;2022-09-09T05:26:29;9.25;;;6.72;;
52057;SDS011;38063;53.210;6.504;2022-09-09T05:28:56;15.52;;;7.00;;
52057;SDS011;38063;53.210;6.504;2022-09-09T05:31:23;12.45;;;6.80;;
52057;SDS011;38063;53.210;6.504;2022-09-09T05:33:53;11.50;;;7.15;;
52057;SDS011;38063;53.210;6.504;2022-09-09T05:36:19;12.48;;;7.68;;
52057;SDS011;38063;53.210;6.504;2022-09-09T05:38:46;14.25;;;7.82;;
52057;SDS011;38063;53.210;6.504;2022-09-09T05:41:13;10.80;;;7.45;;
52057;SDS011;38063;53.210;6.504;2022-09-09T05:43:41;13.07;;;8.20;;
52057;SDS011;38063;53.210;6.504;2022-09-09T05:46:16;12.77;;;8.48;;
52057;SDS011;38063;53.210;6.504;2022-09-09T05:48:43;10.98;;;7.88;;
52057;SDS011;38063;53.210;6.504;2022-09-09T05:51:12;15.13;;;8.23;;
52057;SDS011;38063;53.210;6.504;2022-09-09T05:53:40;15.85;;;8.15;;
52057;SDS011;38063;53.210;6.504;2022-09-09T05:56:07;11.00;;;7.75;;
52057;SDS011;38063;53.210;6.504;2022-09-09T05:58:35;15.40;;;8.73;;
52057;SDS011;38063;53.210;6.504;2022-09-09T06:01:09;12.48;;;8.43;;
52057;SDS011;38063;53.210;6.504;2022-09-09T06:03:40;12.20;;;8.88;;
52057;SDS011;38063;53.210;6.504;2022-09-09T06:06:07;13.25;;;8.95;;
52057;SDS011;38063;53.210;6.504;2022-09-09T06:08:36;12.02;;;9.05;;
52057;SDS011;38063;53.210;6.504;2022-09-09T06:11:13;14.05;;;9.07;;
52057;SDS011;38063;53.210;6.504;2022-09-09T06:13:40;15.70;;;9.18;;
52057;SDS011;38063;53.210;6.504;2022-09-09T06:16:10;13.27;;;9.02;;
52057;SDS011;38063;53.210;6.504;2022-09-09T06:18:37;15.80;;;9.43;;
52057;SDS011;38063;53.210;6.504;2022-09-09T06:21:04;14.38;;;9.23;;
52057;SDS011;38063;53.210;6.504;2022-09-09T06:23:32;20.20;;;9.55;;
52057;SDS011;38063;53.210;6.504;2022-09-09T06:26:03;19.15;;;9.05;;
52057;SDS011;38063;53.210;6.504;2022-09-09T06:28:34;12.50;;;9.73;;
52057;SDS011;38063;53.210;6.504;2022-09-09T06:31:01;15.57;;;9.38;;
52057;SDS011;38063;53.210;6.504;2022-09-09T06:33:36;14.25;;;8.73;;
52057;SDS011;38063;53.210;6.504;2022-09-09T06:36:06;16.10;;;9.07;;
52057;SDS011;38063;53.210;6.504;2022-09-09T06:38:35;15.10;;;9.07;;
52057;SDS011;38063;53.210;6.504;2022-09-09T06:41:00;12.32;;;9.10;;
52057;SDS011;38063;53.210;6.504;2022-09-09T06:43:27;13.98;;;8.60;;
52057;SDS011;38063;53.210;6.504;2022-09-09T06:45:56;15.48;;;9.15;;
52057;SDS011;38063;53.210;6.504;2022-09-09T06:48:23;11.45;;;8.10;;
52057;SDS011;38063;53.210;6.504;2022-09-09T06:50:51;12.50;;;8.32;;
52057;SDS011;38063;53.210;6.504;2022-09-09T06:53:25;14.68;;;8.57;;
52057;SDS011;38063;53.210;6.504;2022-09-09T06:55:52;15.05;;;8.25;;
52057;SDS011;38063;53.210;6.504;2022-09-09T06:58:18;13.20;;;7.57;;
52057;SDS011;38063;53.210;6.504;2022-09-09T07:00:43;11.57;;;8.48;;
52057;SDS011;38063;53.210;6.504;2022-09-09T07:03:09;14.00;;;8.13;;
52057;SDS011;38063;53.210;6.504;2022-09-09T07:05:35;11.73;;;8.80;;
52057;SDS011;38063;53.210;6.504;2022-09-09T07:08:02;11.63;;;8.48;;
52057;SDS011;38063;53.210;6.504;2022-09-09T07:10:28;12.13;;;8.32;;
52057;SDS011;38063;53.210;6.504;2022-09-09T07:12:53;11.45;;;8.25;;
52057;SDS011;38063;53.210;6.504;2022-09-09T07:15:19;12.13;;;7.93;;
52057;SDS011;38063;53.210;6.504;2022-09-09T07:17:46;15.32;;;8.30;;
52057;SDS011;38063;53.210;6.504;2022-09-09T07:20:12;12.38;;;8.18;;
52057;SDS011;38063;53.210;6.504;2022-09-09T07:22:39;12.63;;;8.20;;
52057;SDS011;38063;53.210;6.504;2022-09-09T07:25:06;8.35;;;7.32;;
52057;SDS011;38063;53.210;6.504;2022-09-09T07:27:32;11.30;;;7.20;;
52057;SDS011;38063;53.210;6.504;2022-09-09T07:29:58;9.77;;;6.97;;
52057;SDS011;38063;53.210;6.504;2022-09-09T07:32:24;12.40;;;6.63;;
52057;SDS011;38063;53.210;6.504;2022-09-09T07:34:50;10.32;;;7.57;;
52057;SDS011;38063;53.210;6.504;2022-09-09T07:37:16;10.27;;;7.60;;
52057;SDS011;38063;53.210;6.504;2022-09-09T07:39:42;10.98;;;7.65;;
52057;SDS011;38063;53.210;6.504;2022-09-09T07:42:09;11.23;;;7.43;;
52057;SDS011;38063;53.210;6.504;2022-09-09T07:44:36;10.18;;;6.97;;
52057;SDS011;38063;53.210;6.504;2022-09-09T07:47:04;11.15;;;7.00;;
52057;SDS011;38063;53.210;6.504;2022-09-09T07:49:30;9.82;;;6.93;;
52057;SDS011;38063;53.210;6.504;2022-09-09T07:51:57;9.95;;;6.95;;
52057;SDS011;38063;53.210;6.504;2022-09-09T07:54:23;10.20;;;7.32;;
52057;SDS011;38063;53.210;6.504;2022-09-09T07:56:49;9.07;;;6.53;;
52057;SDS011;38063;53.210;6.504;2022-09-09T07:59:16;8.50;;;6.22;;
52057;SDS011;38063;53.210;6.504;2022-09-09T08:01:43;7.57;;;6.78;;
52057;SDS011;38063;53.210;6.504;2022-09-09T08:04:15;7.45;;;5.85;;
52057;SDS011;38063;53.210;6.504;2022-09-09T08:06:47;9.25;;;5.97;;
52057;SDS011;38063;53.210;6.504;2022-09-09T08:09:23;8.95;;;5.25;;
52057;SDS011;38063;53.210;6.504;2022-09-09T08:11:54;8.43;;;5.43;;
52057;SDS011;38063;53.210;6.504;2022-09-09T08:14:21;9.32;;;6.15;;
52057;SDS011;38063;53.210;6.504;2022-09-09T08:16:48;8.48;;;5.90;;
52057;SDS011;38063;53.210;6.504;2022-09-09T08:19:15;8.15;;;5.63;;
52057;SDS011;38063;53.210;6.504;2022-09-09T08:21:41;10.52;;;5.90;;
52057;SDS011;38063;53.210;6.504;2022-09-09T08:24:09;8.70;;;5.75;;
52057;SDS011;38063;53.210;6.504;2022-09-09T08:26:36;9.73;;;5.38;;
52057;SDS011;38063;53.210;6.504;2022-09-09T08:29:04;9.27;;;5.43;;
52057;SDS011;38063;53.210;6.504;2022-09-09T08:33:59;9.10;;;5.40;;
52057;SDS011;38063;53.210;6.504;2022-09-09T08:36:26;9.23;;;5.10;;
52057;SDS011;38063;53.210;6.504;2022-09-09T08:38:54;8.30;;;4.90;;
52057;SDS011;38063;53.210;6.504;2022-09-09T08:52:13;10.45;;;4.85;;
52057;SDS011;38063;53.210;6.504;2022-09-09T08:54:42;6.50;;;4.28;;
52057;SDS011;38063;53.210;6.504;2022-09-09T08:57:14;10.13;;;5.72;;
52057;SDS011;38063;53.210;6.504;2022-09-09T08:59:44;10.70;;;4.90;;
52057;SDS011;38063;53.210;6.504;2022-09-09T09:02:53;7.97;;;4.53;;
52057;SDS011;38063;53.210;6.504;2022-09-09T09:12:55;7.55;;;3.75;;
52057;SDS011;38063;53.210;6.504;2022-09-09T09:15:23;7.45;;;3.97;;
52057;SDS011;38063;53.210;6.504;2022-09-09T09:17:50;7.90;;;4.22;;
52057;SDS011;38063;53.210;6.504;2022-09-09T09:20:18;8.07;;;4.20;;
52057;SDS011;38063;53.210;6.504;2022-09-09T09:22:55;9.93;;;4.63;;
52057;SDS011;38063;53.210;6.504;2022-09-09T09:25:33;8.15;;;4.15;;
52057;SDS011;38063;53.210;6.504;2022-09-09T09:28:07;12.10;;;4.22;;
52057;SDS011;38063;53.210;6.504;2022-09-09T09:30:39;10.77;;;4.38;;
52057;SDS011;38063;53.210;6.504;2022-09-09T09:35:45;7.30;;;3.63;;
52057;SDS011;38063;53.210;6.504;2022-09-09T09:38:29;8.20;;;3.97;;
52057;SDS011;38063;53.210;6.504;2022-09-09T09:40:55;10.02;;;3.90;;
52057;SDS011;38063;53.210;6.504;2022-09-09T09:43:29;8.52;;;3.85;;
52057;SDS011;38063;53.210;6.504;2022-09-09T09:45:57;8.70;;;3.42;;
52057;SDS011;38063;53.210;6.504;2022-09-09T09:48:24;11.43;;;3.15;;
52057;SDS011;38063;53.210;6.504;2022-09-09T09:53:23;6.40;;;2.47;;
52057;SDS011;38063;53.210;6.504;2022-09-09T09:55:55;6.53;;;2.60;;
52057;SDS011;38063;53.210;6.504;2022-09-09T09:58:23;8.23;;;2.80;;
52057;SDS011;38063;53.210;6.504;2022-09-09T10:00:52;9.25;;;2.95;;
52057;SDS011;38063;53.210;6.504;2022-09-09T10:03:20;11.98;;;3.33;;
52057;SDS011;38063;53.210;6.504;2022-09-09T10:05:48;8.85;;;3.08;;
52057;SDS011;38063;53.210;6.504;2022-09-09T10:08:15;9.07;;;3.00;;
52057;SDS011;38063;53.210;6.504;2022-09-09T10:19:33;9.02;;;2.50;;
52057;SDS011;38063;53.210;6.504;2022-09-09T10:25:02;9.68;;;2.78;;
52057;SDS011;38063;53.210;6.504;2022-09-09T10:31:09;8.50;;;2.60;;
52057;SDS011;38063;53.210;6.504;2022-09-09T10:36:54;13.00;;;2.67;;
52057;SDS011;38063;53.210;6.504;2022-09-09T10:42:14;7.30;;;1.85;;
52057;SDS011;38063;53.210;6.504;2022-09-09T10:56:16;5.07;;;1.63;;
52057;SDS011;38063;53.210;6.504;2022-09-09T11:01:22;6.88;;;1.48;;
52057;SDS011;38063;53.210;6.504;2022-09-09T11:03:52;7.38;;;2.13;;
52057;SDS011;38063;53.210;6.504;2022-09-09T11:06:22;9.07;;;1.75;;
52057;SDS011;38063;53.210;6.504;2022-09-09T11:08:54;6.22;;;1.85;;
52057;SDS011;38063;53.210;6.504;2022-09-09T11:11:36;8.32;;;2.13;;
52057;SDS011;38063;53.210;6.504;2022-09-09T11:17:01;10.57;;;1.63;;
52057;SDS011;38063;53.210;6.504;2022-09-09T11:19:34;4.00;;;1.20;;
52057;SDS011;38063;53.210;6.504;2022-09-09T11:22:00;7.93;;;1.48;;
52057;SDS011;38063;53.210;6.504;2022-09-09T11:24:37;11.95;;;1.63;;
52057;SDS011;38063;53.210;6.504;2022-09-09T11:27:10;4.65;;;1.40;;
52057;SDS011;38063;53.210;6.504;2022-09-09T11:32:28;7.20;;;1.55;;
52057;SDS011;38063;53.210;6.504;2022-09-09T11:35:24;9.73;;;1.75;;
52057;SDS011;38063;53.210;6.504;2022-09-09T11:41:10;4.57;;;1.80;;
52057;SDS011;38063;53.210;6.504;2022-09-09T11:46:04;5.47;;;1.90;;
52057;SDS011;38063;53.210;6.504;2022-09-09T11:51:09;4.28;;;1.38;;
52057;SDS011;38063;53.210;6.504;2022-09-09T11:53:48;5.40;;;1.50;;
52057;SDS011;38063;53.210;6.504;2022-09-09T11:56:23;5.30;;;1.73;;
52057;SDS011;38063;53.210;6.504;2022-09-09T11:58:55;4.95;;;1.50;;
52057;SDS011;38063;53.210;6.504;2022-09-09T12:01:29;4.53;;;1.67;;
52057;SDS011;38063;53.210;6.504;2022-09-09T12:04:21;10.48;;;1.95;;
52057;SDS011;38063;53.210;6.504;2022-09-09T12:07:01;6.43;;;1.60;;
52057;SDS011;38063;53.210;6.504;2022-09-09T12:15:16;5.63;;;1.52;;
52057;SDS011;38063;53.210;6.504;2022-09-09T12:17:48;5.07;;;1.52;;
52057;SDS011;38063;53.210;6.504;2022-09-09T12:20:17;6.53;;;1.60;;
52057;SDS011;38063;53.210;6.504;2022-09-09T12:23:02;4.72;;;1.25;;
52057;SDS011;38063;53.210;6.504;2022-09-09T12:28:17;6.95;;;1.33;;
52057;SDS011;38063;53.210;6.504;2022-09-09T12:33:42;5.32;;;1.70;;
52057;SDS011;38063;53.210;6.504;2022-09-09T12:36:15;4.90;;;1.75;;
52057;SDS011;38063;53.210;6.504;2022-09-09T12:38:44;5.47;;;1.40;;
52057;SDS011;38063;53.210;6.504;2022-09-09T12:41:24;5.00;;;1.30;;
52057;SDS011;38063;53.210;6.504;2022-09-09T12:44:06;5.38;;;1.40;;
52057;SDS011;38063;53.210;6.504;2022-09-09T12:46:39;6.57;;;1.55;;
52057;SDS011;38063;53.210;6.504;2022-09-09T12:49:24;8.93;;;1.17;;
52057;SDS011;38063;53.210;6.504;2022-09-09T12:51:56;6.57;;;1.48;;
52057;SDS011;38063;53.210;6.504;2022-09-09T12:54:22;6.80;;;1.33;;
52057;SDS011;38063;53.210;6.504;2022-09-09T12:56:48;4.82;;;1.08;;
52057;SDS011;38063;53.210;6.504;2022-09-09T12:59:25;5.50;;;1.08;;
52057;SDS011;38063;53.210;6.504;2022-09-09T13:01:59;5.77;;;1.27;;
52057;SDS011;38063;53.210;6.504;2022-09-09T13:04:25;6.53;;;1.70;;
52057;SDS011;38063;53.210;6.504;2022-09-09T13:06:51;6.88;;;1.50;;
52057;SDS011;38063;53.210;6.504;2022-09-09T13:09:20;4.68;;;1.70;;
52057;SDS011;38063;53.210;6.504;2022-09-09T13:11:50;6.60;;;1.83;;
52057;SDS011;38063;53.210;6.504;2022-09-09T13:14:28;6.35;;;1.30;;
52057;SDS011;38063;53.210;6.504;2022-09-09T13:17:00;7.35;;;2.10;;
52057;SDS011;38063;53.210;6.504;2022-09-09T13:20:14;4.72;;;1.35;;
52057;SDS011;38063;53.210;6.504;2022-09-09T13:22:37;7.05;;;1.52;;
52057;SDS011;38063;53.210;6.504;2022-09-09T13:27:36;4.70;;;1.45;;
52057;SDS011;38063;53.210;6.504;2022-09-09T13:30:19;9.70;;;1.23;;
52057;SDS011;38063;53.210;6.504;2022-09-09T13:32:47;5.32;;;1.70;;
52057;SDS011;38063;53.210;6.504;2022-09-09T13:35:26;6.22;;;1.63;;
52057;SDS011;38063;53.210;6.504;2022-09-09T13:37:52;4.85;;;1.35;;
52057;SDS011;38063;53.210;6.504;2022-09-09T13:40:21;3.42;;;1.23;;
52057;SDS011;38063;53.210;6.504;2022-09-09T13:46:02;6.68;;;1.40;;
52057;SDS011;38063;53.210;6.504;2022-09-09T13:48:59;5.28;;;1.45;;
52057;SDS011;38063;53.210;6.504;2022-09-09T13:51:29;5.78;;;1.40;;
52057;SDS011;38063;53.210;6.504;2022-09-09T13:53:56;6.93;;;1.38;;
52057;SDS011;38063;53.210;6.504;2022-09-09T13:56:22;9.85;;;1.55;;
52057;SDS011;38063;53.210;6.504;2022-09-09T13:58:48;4.10;;;1.20;;
52057;SDS011;38063;53.210;6.504;2022-09-09T14:01:14;4.28;;;1.20;;
52057;SDS011;38063;53.210;6.504;2022-09-09T14:03:39;5.38;;;1.45;;
52057;SDS011;38063;53.210;6.504;2022-09-09T14:06:05;5.25;;;1.40;;
52057;SDS011;38063;53.210;6.504;2022-09-09T14:08:32;4.32;;;1.10;;
52057;SDS011;38063;53.210;6.504;2022-09-09T14:11:02;7.55;;;1.60;;
52057;SDS011;38063;53.210;6.504;2022-09-09T14:13:28;5.28;;;1.20;;
52057;SDS011;38063;53.210;6.504;2022-09-09T14:15:54;2.45;;;0.90;;
52057;SDS011;38063;53.210;6.504;2022-09-09T14:18:20;6.55;;;1.15;;
52057;SDS011;38063;53.210;6.504;2022-09-09T14:20:47;4.13;;;1.08;;
52057;SDS011;38063;53.210;6.504;2022-09-09T14:23:13;3.65;;;1.30;;
52057;SDS011;38063;53.210;6.504;2022-09-09T14:25:42;6.30;;;1.10;;
52057;SDS011;38063;53.210;6.504;2022-09-09T14:28:09;5.25;;;1.20;;
52057;SDS011;38063;53.210;6.504;2022-09-09T14:30:36;3.58;;;1.23;;
52057;SDS011;38063;53.210;6.504;2022-09-09T14:33:06;3.05;;;1.30;;
52057;SDS011;38063;53.210;6.504;2022-09-09T14:35:38;5.00;;;1.95;;
52057;SDS011;38063;53.210;6.504;2022-09-09T14:38:06;5.60;;;1.27;;
52057;SDS011;38063;53.210;6.504;2022-09-09T14:40:33;4.18;;;1.33;;
52057;SDS011;38063;53.210;6.504;2022-09-09T14:43:03;5.40;;;1.40;;
52057;SDS011;38063;53.210;6.504;2022-09-09T14:45:30;5.25;;;1.30;;
52057;SDS011;38063;53.210;6.504;2022-09-09T14:47:56;5.22;;;1.63;;
52057;SDS011;38063;53.210;6.504;2022-09-09T14:50:22;5.18;;;1.20;;
52057;SDS011;38063;53.210;6.504;2022-09-09T14:52:48;4.40;;;0.98;;
52057;SDS011;38063;53.210;6.504;2022-09-09T14:55:15;2.92;;;0.65;;
52057;SDS011;38063;53.210;6.504;2022-09-09T14:57:41;2.97;;;0.77;;
52057;SDS011;38063;53.210;6.504;2022-09-09T15:00:08;1.88;;;0.90;;
52057;SDS011;38063;53.210;6.504;2022-09-09T15:02:35;5.60;;;1.00;;
52057;SDS011;38063;53.210;6.504;2022-09-09T15:05:00;3.45;;;0.80;;
52057;SDS011;38063;53.210;6.504;2022-09-09T15:07:26;2.00;;;0.68;;
52057;SDS011;38063;53.210;6.504;2022-09-09T15:09:53;3.33;;;1.00;;
52057;SDS011;38063;53.210;6.504;2022-09-09T15:12:19;3.30;;;0.85;;
52057;SDS011;38063;53.210;6.504;2022-09-09T15:14:45;1.67;;;0.68;;
52057;SDS011;38063;53.210;6.504;2022-09-09T15:17:12;3.17;;;0.95;;
52057;SDS011;38063;53.210;6.504;2022-09-09T15:19:38;3.90;;;1.00;;
52057;SDS011;38063;53.210;6.504;2022-09-09T15:22:04;2.95;;;0.63;;
52057;SDS011;38063;53.210;6.504;2022-09-09T15:24:32;2.08;;;0.70;;
52057;SDS011;38063;53.210;6.504;2022-09-09T15:26:59;1.88;;;0.82;;
52057;SDS011;38063;53.210;6.504;2022-09-09T15:29:25;4.22;;;0.88;;
52057;SDS011;38063;53.210;6.504;2022-09-09T15:31:51;2.10;;;0.88;;
52057;SDS011;38063;53.210;6.504;2022-09-09T15:34:19;3.53;;;0.70;;
52057;SDS011;38063;53.210;6.504;2022-09-09T15:36:45;2.08;;;0.70;;
52057;SDS011;38063;53.210;6.504;2022-09-09T15:39:12;3.60;;;1.20;;
52057;SDS011;38063;53.210;6.504;2022-09-09T15:41:41;2.10;;;1.00;;
52057;SDS011;38063;53.210;6.504;2022-09-09T15:44:08;10.32;;;2.13;;
52057;SDS011;38063;53.210;6.504;2022-09-09T15:46:44;3.40;;;0.90;;
52057;SDS011;38063;53.210;6.504;2022-09-09T15:49:20;4.40;;;1.10;;
52057;SDS011;38063;53.210;6.504;2022-09-09T15:51:56;2.85;;;0.70;;
52057;SDS011;38063;53.210;6.504;2022-09-09T15:54:23;3.13;;;0.80;;
52057;SDS011;38063;53.210;6.504;2022-09-09T15:56:51;2.15;;;0.77;;
52057;SDS011;38063;53.210;6.504;2022-09-09T15:59:22;1.92;;;0.80;;
52057;SDS011;38063;53.210;6.504;2022-09-09T16:01:49;1.67;;;0.70;;
52057;SDS011;38063;53.210;6.504;2022-09-09T16:04:16;2.10;;;0.90;;
52057;SDS011;38063;53.210;6.504;2022-09-09T16:06:58;3.83;;;0.98;;
52057;SDS011;38063;53.210;6.504;2022-09-09T16:09:26;1.85;;;0.70;;
52057;SDS011;38063;53.210;6.504;2022-09-09T16:11:52;1.92;;;0.95;;
52057;SDS011;38063;53.210;6.504;2022-09-09T16:14:21;2.15;;;0.82;;
52057;SDS011;38063;53.210;6.504;2022-09-09T16:16:47;2.20;;;0.98;;
52057;SDS011;38063;53.210;6.504;2022-09-09T16:19:13;5.28;;;0.90;;
52057;SDS011;38063;53.210;6.504;2022-09-09T16:21:40;3.35;;;0.95;;
52057;SDS011;38063;53.210;6.504;2022-09-09T16:24:16;1.83;;;0.77;;
52057;SDS011;38063;53.210;6.504;2022-09-09T16:26:44;4.10;;;0.95;;
52057;SDS011;38063;53.210;6.504;2022-09-09T16:29:12;3.55;;;0.90;;
52057;SDS011;38063;53.210;6.504;2022-09-09T16:31:39;3.05;;;1.08;;
52057;SDS011;38063;53.210;6.504;2022-09-09T16:34:06;1.80;;;0.90;;
52057;SDS011;38063;53.210;6.504;2022-09-09T16:36:33;5.35;;;1.05;;
52057;SDS011;38063;53.210;6.504;2022-09-09T16:39:05;5.90;;;1.05;;
52057;SDS011;38063;53.210;6.504;2022-09-09T16:41:38;4.15;;;1.08;;
52057;SDS011;38063;53.210;6.504;2022-09-09T16:44:06;3.90;;;1.20;;
52057;SDS011;38063;53.210;6.504;2022-09-09T16:46:34;2.03;;;1.00;;
52057;SDS011;38063;53.210;6.504;2022-09-09T16:49:02;3.88;;;1.08;;
52057;SDS011;38063;53.210;6.504;2022-09-09T16:51:33;2.03;;;1.02;;
52057;SDS011;38063;53.210;6.504;2022-09-09T16:54:02;3.15;;;1.13;;
52057;SDS011;38063;53.210;6.504;2022-09-09T16:56:31;4.43;;;1.02;;
52057;SDS011;38063;53.210;6.504;2022-09-09T16:59:00;3.58;;;1.27;;
52057;SDS011;38063;53.210;6.504;2022-09-09T17:01:29;2.65;;;0.90;;
52057;SDS011;38063;53.210;6.504;2022-09-09T17:03:58;3.10;;;1.08;;
52057;SDS011;38063;53.210;6.504;2022-09-09T17:06:26;2.97;;;1.30;;